Time;durP1;ratioP1;P1;durP2;ratioP2;P2;SDS_P1;SDS_P2;PMS_P1;PMS_P2;Temp;Humidity;BMP_temperature;BMP_pressure;BME280_temperature;BME280_humidity;BME280_pressure;Samples;Min_cycle;Max_cycle;Signal;HPM_P1;HPM_P2
2023/03/05 00:01:32;;;;;;;9.95;6.55;;;;;;;-0.69;74.85;97832.03;4956157;28;20058;-76
2023/03/05 00:03:58;;;;;;;8.02;6.03;;;;;;;-0.73;74.20;97815.63;4922910;29;20051;-78
2023/03/05 00:06:27;;;;;;;10.25;6.43;;;;;;;-0.76;74.36;97821.91;4922607;29;20147;-77
2023/03/05 00:08:55;;;;;;;9.80;6.43;;;;;;;-0.78;74.21;97817.69;4938427;29;20049;-77
2023/03/05 00:11:21;;;;;;;11.40;6.63;;;;;;;-0.79;74.78;97822.09;4954101;28;20051;-77
2023/03/05 00:13:51;;;;;;;7.32;6.20;;;;;;;-0.88;74.87;97824.41;4922585;29;20043;-77
2023/03/05 00:16:17;;;;;;;8.20;6.03;;;;;;;-0.76;75.18;97829.78;4954429;29;20054;-77
2023/03/05 00:18:44;;;;;;;8.57;6.75;;;;;;;-0.85;74.79;97824.22;4954075;28;20058;-76
2023/03/05 00:21:25;;;;;;;7.03;5.65;;;;;;;-0.87;75.27;97824.31;4955372;28;20118;-77
2023/03/05 00:23:52;;;;;;;8.40;6.50;;;;;;;-0.95;75.56;97826.53;4937256;29;20405;-77
2023/03/05 00:26:19;;;;;;;8.23;6.72;;;;;;;-0.83;75.95;97831.09;4955179;28;20039;-80
2023/03/05 00:28:50;;;;;;;8.82;6.30;;;;;;;-0.82;75.45;97832.78;4953905;29;20057;-79
2023/03/05 00:31:18;;;;;;;11.52;6.75;;;;;;;-0.75;75.88;97844.59;4954271;29;20051;-79
2023/03/05 00:33:44;;;;;;;8.73;6.93;;;;;;;-0.76;75.87;97829.78;4953840;29;20050;-78
2023/03/05 00:36:11;;;;;;;8.38;7.00;;;;;;;-0.81;75.78;97821.34;4955147;28;20557;-77
2023/03/05 00:38:36;;;;;;;9.35;6.78;;;;;;;-0.84;76.45;97823.28;4922181;29;20035;-76
2023/03/05 00:41:02;;;;;;;10.20;7.18;;;;;;;-0.76;76.03;97832.41;4953641;29;20055;-77
2023/03/05 00:43:29;;;;;;;8.23;6.85;;;;;;;-0.79;76.18;97822.09;4955053;28;20098;-77
2023/03/05 00:45:55;;;;;;;8.85;6.90;;;;;;;-0.76;76.60;97828.94;4937992;29;20051;-78
2023/03/05 00:48:24;;;;;;;8.50;7.10;;;;;;;-0.77;76.40;97822.84;4955079;28;20516;-77
2023/03/05 00:50:50;;;;;;;11.43;6.47;;;;;;;-0.76;76.52;97832.41;4937682;29;20098;-78
2023/03/05 00:53:16;;;;;;;10.07;7.15;;;;;;;-0.70;75.97;97838.25;4969942;28;20054;-77
2023/03/05 00:55:42;;;;;;;9.60;6.53;;;;;;;-0.76;76.40;97829.78;4955148;28;20522;-78
2023/03/05 00:58:08;;;;;;;9.98;6.55;;;;;;;-0.70;76.19;97830.38;4954955;28;20035;-77
2023/03/05 01:00:34;;;;;;;10.68;7.60;;;;;;;-0.68;76.13;97836.34;4953629;29;20047;-79
2023/03/05 01:03:00;;;;;;;8.27;6.63;;;;;;;-0.66;76.70;97847.63;4953450;29;20054;-78
2023/03/05 01:05:25;;;;;;;8.65;6.55;;;;;;;-0.68;76.26;97841.59;4953490;29;20043;-76
2023/03/05 01:07:52;;;;;;;7.75;6.45;;;;;;;-0.67;76.70;97840.69;4955261;28;20383;-78
2023/03/05 01:10:19;;;;;;;11.18;7.53;;;;;;;-0.64;76.92;97840.47;4922013;29;20040;-77
2023/03/05 01:12:45;;;;;;;10.38;7.18;;;;;;;-0.55;76.32;97853.91;4953716;29;20051;-77
2023/03/05 01:15:10;;;;;;;9.60;6.97;;;;;;;-0.56;76.51;97833.03;4954821;28;20406;-77
2023/03/05 01:17:36;;;;;;;10.82;7.13;;;;;;;-0.50;76.24;97840.53;4953419;29;20043;-78
2023/03/05 01:20:03;;;;;;;9.80;7.25;;;;;;;-0.52;76.45;97847.66;4954732;28;20043;-78
2023/03/05 01:22:32;;;;;;;12.43;7.30;;;;;;;-0.45;76.31;97851.63;4953479;29;20046;-78
2023/03/05 01:24:57;;;;;;;10.25;7.18;;;;;;;-0.38;76.34;97855.53;4954728;28;20494;-77
2023/03/05 01:27:23;;;;;;;9.60;7.60;;;;;;;-0.36;75.96;97852.84;4937609;29;20071;-78
2023/03/05 01:29:49;;;;;;;10.48;7.38;;;;;;;-0.31;76.17;97862.13;4937477;29;20047;-78
2023/03/05 01:32:15;;;;;;;12.35;7.50;;;;;;;-0.29;76.18;97862.88;4953437;29;20043;-77
2023/03/05 01:34:41;;;;;;;9.10;7.38;;;;;;;-0.25;75.90;97864.38;4969831;28;20044;-78
2023/03/05 01:37:07;;;;;;;12.07;7.43;;;;;;;-0.25;76.02;97861.75;4957688;29;20053;-78
2023/03/05 01:39:35;;;;;;;10.13;7.07;;;;;;;-0.20;76.06;97861.47;4956343;29;20071;-78
2023/03/05 01:42:01;;;;;;;10.27;7.68;;;;;;;-0.13;75.63;97856.69;4957192;29;20138;-78
2023/03/05 01:44:29;;;;;;;8.75;7.00;;;;;;;-0.16;75.51;97859.50;4958252;28;20054;-77
2023/03/05 01:46:55;;;;;;;9.77;7.32;;;;;;;-0.14;75.94;97855.03;4956934;29;20078;-77
2023/03/05 01:49:34;;;;;;;9.90;6.85;;;;;;;-0.09;75.64;97852.94;4940619;29;20043;-77
2023/03/05 01:52:02;;;;;;;9.63;7.28;;;;;;;-0.12;75.71;97858.38;4957076;29;20051;-77
2023/03/05 01:54:33;;;;;;;9.35;7.07;;;;;;;-0.08;75.45;97854.63;4956559;28;20175;-77
2023/03/05 01:57:06;;;;;;;10.27;7.45;;;;;;;-0.16;75.98;97856.88;4958012;28;20134;-77
2023/03/05 01:59:32;;;;;;;10.18;7.40;;;;;;;-0.12;76.00;97847.88;4956528;29;20062;-77
2023/03/05 02:01:59;;;;;;;9.10;7.32;;;;;;;-0.21;76.22;97848.44;4957912;28;20051;-77
2023/03/05 02:04:31;;;;;;;9.38;7.00;;;;;;;-0.28;76.02;97833.06;4940429;29;20089;-78
2023/03/05 02:06:58;;;;;;;10.95;7.70;;;;;;;-0.28;76.49;97838.31;4924959;29;20193;-78
2023/03/05 02:09:25;;;;;;;10.43;7.82;;;;;;;-0.32;76.53;97836.81;4972676;28;20391;-76
2023/03/05 02:11:51;;;;;;;9.43;7.13;;;;;;;-0.29;76.68;97833.16;4972751;28;20059;-77
2023/03/05 02:14:19;;;;;;;9.40;7.28;;;;;;;-0.40;77.08;97818.03;4956379;29;20043;-77
2023/03/05 02:16:45;;;;;;;11.50;7.60;;;;;;;-0.35;77.27;97836.97;4972730;28;20043;-78
2023/03/05 02:19:12;;;;;;;12.63;7.78;;;;;;;-0.30;77.01;97827.06;4957529;28;20075;-77
2023/03/05 02:21:43;;;;;;;10.73;7.70;;;;;;;-0.20;76.96;97821.25;4972435;28;20066;-78
2023/03/05 02:24:14;;;;;;;11.52;7.88;;;;;;;-0.15;76.94;97816.53;4956458;29;20129;-78
2023/03/05 02:26:43;;;;;;;10.00;7.93;;;;;;;-0.12;76.90;97837.38;4924358;29;20055;-77
2023/03/05 02:29:15;;;;;;;12.32;8.02;;;;;;;-0.14;77.17;97831.38;4940245;29;20043;-77
2023/03/05 02:31:42;;;;;;;10.52;7.63;;;;;;;-0.08;76.88;97844.13;4925808;29;20043;-78
2023/03/05 02:34:08;;;;;;;10.27;7.57;;;;;;;-0.06;76.71;97842.25;4957091;29;20050;-78
2023/03/05 02:36:33;;;;;;;13.13;8.15;;;;;;;-0.17;76.89;97839.44;4972816;28;20509;-77
2023/03/05 02:39:00;;;;;;;10.35;8.38;;;;;;;-0.19;77.21;97831.63;4957586;28;20043;-77
2023/03/05 02:41:26;;;;;;;10.55;7.95;;;;;;;-0.07;77.16;97845.84;4972654;28;20055;-77
2023/03/05 02:43:55;;;;;;;10.80;8.43;;;;;;;-0.04;76.97;97835.13;4958085;28;20054;-78
2023/03/05 02:46:21;;;;;;;12.30;7.97;;;;;;;-0.05;77.02;97838.69;4971801;28;20282;-78
2023/03/05 02:48:47;;;;;;;10.07;7.85;;;;;;;-0.03;77.13;97837.66;4956996;28;20529;-79
2023/03/05 02:51:13;;;;;;;13.10;8.32;;;;;;;-0.06;77.02;97852.78;4939974;29;20047;-78
2023/03/05 02:53:41;;;;;;;12.85;8.98;;;;;;;-0.09;77.23;97856.41;4971565;28;20039;-78
2023/03/05 02:56:07;;;;;;;11.85;8.63;;;;;;;-0.06;77.47;97858.88;4955589;29;20051;-79
2023/03/05 02:58:34;;;;;;;13.48;9.18;;;;;;;0.00;77.31;97852.41;4971639;28;20415;-79
2023/03/05 03:01:00;;;;;;;12.23;8.27;;;;;;;0.02;77.77;97861.03;4955491;29;20043;-77
2023/03/05 03:03:26;;;;;;;14.15;8.85;;;;;;;-0.02;78.09;97864.78;4971539;28;20058;-79
2023/03/05 03:05:52;;;;;;;15.40;9.75;;;;;;;-0.05;77.98;97860.53;4956639;28;20106;-79
2023/03/05 03:08:18;;;;;;;12.32;8.82;;;;;;;0.06;77.88;97859.06;4955237;29;20043;-79
2023/03/05 03:10:43;;;;;;;11.63;8.93;;;;;;;0.03;78.25;97862.72;4956566;28;20044;-78
2023/03/05 03:13:09;;;;;;;13.07;9.82;;;;;;;0.08;77.96;97859.81;4939738;29;20401;-80
2023/03/05 03:15:36;;;;;;;14.63;9.20;;;;;;;0.21;77.98;97866.84;4955486;29;20576;-80
2023/03/05 03:18:02;;;;;;;22.90;10.85;;;;;;;0.28;77.78;97863.84;4971243;28;20039;-80
2023/03/05 03:20:28;;;;;;;18.20;10.27;;;;;;;0.34;77.66;97868.69;4955332;29;20043;-77
2023/03/05 03:22:54;;;;;;;14.85;9.05;;;;;;;0.35;77.57;97870.41;4923480;29;20550;-80
2023/03/05 03:25:21;;;;;;;13.90;10.15;;;;;;;0.36;77.89;97872.09;4924341;29;20094;-82
2023/03/05 03:27:51;;;;;;;17.52;10.45;;;;;;;0.42;77.60;97869.94;4939971;29;20075;-79
2023/03/05 03:30:17;;;;;;;11.48;8.65;;;;;;;0.43;77.63;97870.78;4971358;28;20082;-80
2023/03/05 03:32:43;;;;;;;14.07;9.30;;;;;;;0.50;77.62;97863.34;4956193;28;20043;-80
2023/03/05 03:35:11;;;;;;;17.52;11.20;;;;;;;0.55;77.58;97863.91;4970839;28;20398;-80
2023/03/05 03:37:36;;;;;;;14.63;10.60;;;;;;;0.63;76.95;97872.97;4939261;29;20047;-81
2023/03/05 03:40:04;;;;;;;15.63;10.73;;;;;;;0.69;77.19;97872.59;4956002;28;20069;-78
2023/03/05 03:42:30;;;;;;;14.88;10.13;;;;;;;0.79;76.81;97862.34;4970992;28;20047;-78
2023/03/05 03:44:56;;;;;;;15.25;10.73;;;;;;;0.92;76.68;97857.97;4955847;28;20086;-78
2023/03/05 03:47:22;;;;;;;14.80;10.50;;;;;;;0.99;76.04;97845.28;4956042;28;20043;-81
2023/03/05 03:49:48;;;;;;;15.57;11.07;;;;;;;1.02;75.91;97862.66;4938722;29;20387;-76
2023/03/05 03:52:14;;;;;;;17.65;11.45;;;;;;;1.02;76.19;97862.66;4955665;28;20066;-76
2023/03/05 03:54:40;;;;;;;18.20;11.65;;;;;;;1.13;75.88;97861.00;4955784;28;20046;-80
2023/03/05 03:57:05;;;;;;;17.13;11.35;;;;;;;1.28;75.23;97858.28;4954570;29;20502;-81
2023/03/05 03:59:31;;;;;;;16.10;10.82;;;;;;;1.31;75.21;97863.34;4953960;28;20134;-78
2023/03/05 04:01:57;;;;;;;18.98;11.25;;;;;;;1.30;75.28;97859.03;4954341;29;20482;-81
2023/03/05 04:04:25;;;;;;;17.23;11.70;;;;;;;1.31;74.67;97852.81;4938306;29;20039;-79
2023/03/05 04:06:51;;;;;;;16.90;11.13;;;;;;;1.37;74.65;97855.06;4955628;29;20039;-79
2023/03/05 04:09:17;;;;;;;16.58;10.82;;;;;;;1.46;74.50;97857.06;4955773;28;20058;-81
2023/03/05 04:11:42;;;;;;;17.85;12.20;;;;;;;1.42;73.93;97866.97;4954668;28;20121;-79
2023/03/05 04:14:08;;;;;;;17.00;11.35;;;;;;;1.41;74.63;97864.44;4954193;29;20039;-82
2023/03/05 04:16:34;;;;;;;18.70;11.32;;;;;;;1.42;74.66;97871.38;4955475;29;20043;-82
2023/03/05 04:19:00;;;;;;;18.52;11.07;;;;;;;1.51;74.16;97870.78;4922593;29;20047;-79
2023/03/05 04:21:25;;;;;;;16.38;12.20;;;;;;;1.53;74.12;97863.63;4955538;29;20047;-78
2023/03/05 04:23:51;;;;;;;20.20;12.23;;;;;;;1.62;74.04;97873.56;4954132;29;20051;-77
2023/03/05 04:26:17;;;;;;;18.23;11.77;;;;;;;1.66;73.85;97885.56;4955270;29;20486;-77
2023/03/05 04:28:43;;;;;;;17.65;11.70;;;;;;;1.72;73.66;97884.28;4954181;29;20579;-79
2023/03/05 04:31:09;;;;;;;16.75;11.35;;;;;;;1.68;73.40;97883.66;4970222;28;20051;-78
2023/03/05 04:33:35;;;;;;;18.98;11.38;;;;;;;1.60;73.69;97880.69;4954189;29;20407;-77
2023/03/05 04:36:01;;;;;;;17.73;11.75;;;;;;;1.66;73.29;97890.00;4953345;29;20054;-78
2023/03/05 04:38:26;;;;;;;20.42;12.48;;;;;;;1.68;73.91;97878.38;4953790;29;20039;-80
2023/03/05 04:40:52;;;;;;;17.63;12.35;;;;;;;1.79;73.92;97876.81;4953730;28;20055;-78
2023/03/05 04:43:18;;;;;;;17.48;11.48;;;;;;;1.81;73.47;97877.59;4953656;29;20043;-77
2023/03/05 04:45:44;;;;;;;22.50;12.05;;;;;;;1.81;73.16;97872.31;4954079;28;20525;-78
2023/03/05 04:48:10;;;;;;;18.00;11.68;;;;;;;1.79;73.00;97875.03;4954471;29;20046;-79
2023/03/05 04:50:37;;;;;;;18.45;11.40;;;;;;;1.84;73.34;97878.22;4953715;29;20043;-78
2023/03/05 04:53:03;;;;;;;19.25;12.80;;;;;;;2.04;73.17;97895.28;4937600;29;20379;-77
2023/03/05 04:55:29;;;;;;;17.10;12.18;;;;;;;2.06;72.65;97898.66;4952789;29;20901;-79
2023/03/05 04:57:55;;;;;;;19.73;12.27;;;;;;;1.96;72.66;97918.69;4954115;29;20047;-78
2023/03/05 05:00:21;;;;;;;19.58;12.60;;;;;;;1.92;73.21;97896.97;4969449;28;20057;-78
2023/03/05 05:02:49;;;;;;;30.40;12.38;;;;;;;2.13;72.48;97905.19;4954115;29;20082;-79
2023/03/05 05:05:17;;;;;;;17.23;11.48;;;;;;;2.05;72.98;97904.03;4953063;29;20570;-79
2023/03/05 05:07:44;;;;;;;17.57;11.60;;;;;;;2.10;72.99;97900.13;4937237;29;20073;-79
2023/03/05 05:10:11;;;;;;;17.52;11.45;;;;;;;2.08;72.92;97896.78;4953709;28;20043;-78
2023/03/05 05:12:38;;;;;;;19.70;12.10;;;;;;;2.06;72.75;97885.47;4941259;29;20078;-77
2023/03/05 05:15:06;;;;;;;23.08;11.85;;;;;;;2.11;72.65;97886.03;4958217;29;20071;-78
2023/03/05 05:17:32;;;;;;;18.23;10.55;;;;;;;2.10;72.95;97900.13;4925014;29;20098;-77
2023/03/05 05:19:59;;;;;;;22.67;12.75;;;;;;;2.25;72.20;97892.13;4941194;29;20518;-80
2023/03/05 05:22:27;;;;;;;19.63;12.02;;;;;;;2.32;72.36;97888.94;4958257;29;20130;-78
2023/03/05 05:24:53;;;;;;;17.67;12.35;;;;;;;2.37;71.33;97885.97;4940374;29;20418;-78
2023/03/05 05:27:19;;;;;;;16.17;10.98;;;;;;;2.42;70.84;97894.44;4957935;29;20513;-76
2023/03/05 05:29:49;;;;;;;18.17;11.18;;;;;;;2.30;71.22;97897.94;4958178;29;20066;-78
2023/03/05 05:32:21;;;;;;;20.70;11.50;;;;;;;2.33;71.03;97897.69;4958126;29;20053;-78
2023/03/05 05:34:47;;;;;;;22.15;11.93;;;;;;;2.38;70.98;97898.25;4958277;29;20043;-78
2023/03/05 05:37:13;;;;;;;17.80;11.18;;;;;;;2.32;70.89;97899.50;4958167;29;20047;-77
2023/03/05 05:39:39;;;;;;;19.33;11.90;;;;;;;2.25;70.96;97903.50;4955505;28;20047;-80
2023/03/05 05:42:05;;;;;;;19.85;12.25;;;;;;;2.23;71.17;97905.41;4994295;28;20412;-79
2023/03/05 05:44:33;;;;;;;19.88;12.77;;;;;;;2.29;71.18;97909.41;4977307;28;20070;-81
2023/03/05 05:46:59;;;;;;;20.95;12.55;;;;;;;2.15;71.66;97898.03;4969824;28;20031;-78
2023/03/05 05:49:25;;;;;;;18.73;11.50;;;;;;;2.18;72.20;97905.75;4970504;28;20039;-79
2023/03/05 05:51:51;;;;;;;20.15;12.77;;;;;;;2.26;71.96;97917.53;4954976;28;20504;-78
2023/03/05 05:54:16;;;;;;;21.25;12.93;;;;;;;2.31;71.66;97912.78;4957008;29;20084;-80
2023/03/05 05:56:42;;;;;;;21.35;12.45;;;;;;;2.39;71.58;97915.75;4956799;29;20082;-78
2023/03/05 05:59:09;;;;;;;20.52;13.25;;;;;;;2.47;71.84;97913.41;4957130;28;20036;-77
2023/03/05 06:01:35;;;;;;;21.35;13.10;;;;;;;2.59;71.44;97912.53;4940101;29;20062;-77
2023/03/05 06:04:01;;;;;;;22.60;13.68;;;;;;;2.87;71.01;97905.31;4956200;29;20055;-81
2023/03/05 06:06:28;;;;;;;21.58;13.95;;;;;;;3.03;70.33;97900.59;4955798;29;20414;-76
2023/03/05 06:08:55;;;;;;;25.30;14.75;;;;;;;3.39;69.53;97901.53;4940283;29;20492;-78
2023/03/05 06:11:21;;;;;;;20.85;13.80;;;;;;;3.69;68.12;97902.84;4955435;29;20079;-83
2023/03/05 06:13:48;;;;;;;21.35;14.73;;;;;;;3.79;68.02;97909.09;4971471;28;20047;-82
2023/03/05 06:16:18;;;;;;;24.85;14.30;;;;;;;3.67;67.96;97888.91;4955743;29;20078;-79
2023/03/05 06:18:43;;;;;;;;;;;;;;;3.79;67.91;97893.25;4964383;28;20097;-81
2023/03/05 06:21:12;;;;;;;25.08;15.05;;;;;;;4.00;67.34;97902.22;4963904;28;20373;-81
2023/03/05 06:23:38;;;;;;;22.60;14.10;;;;;;;4.13;66.57;97889.72;4965412;28;20077;-81
2023/03/05 06:26:07;;;;;;;24.00;14.50;;;;;;;4.48;66.06;97894.09;4970929;28;20142;-81
2023/03/05 06:28:34;;;;;;;25.80;14.53;;;;;;;4.73;64.95;97895.63;4958903;28;20042;-78
2023/03/05 06:31:11;;;;;;;23.25;14.93;;;;;;;4.89;64.86;97892.63;4975138;28;20051;-78
2023/03/05 06:33:38;;;;;;;22.63;15.25;;;;;;;4.98;63.52;97891.88;4973154;28;20050;-82
2023/03/05 06:36:06;;;;;;;22.13;13.52;;;;;;;5.17;63.29;97891.22;4969673;28;20051;-80
2023/03/05 06:38:32;;;;;;;25.75;14.38;;;;;;;5.00;61.80;97886.44;4957180;28;20398;-78
2023/03/05 06:41:10;;;;;;;21.00;13.93;;;;;;;4.77;62.35;97880.34;4964370;28;20498;-79
2023/03/05 06:43:39;;;;;;;24.40;15.23;;;;;;;4.62;63.05;97888.53;4938385;29;20043;-76
2023/03/05 06:46:08;;;;;;;24.17;13.63;;;;;;;4.75;62.80;97885.78;4939180;29;20039;-78
2023/03/05 06:48:33;;;;;;;23.42;14.95;;;;;;;4.84;63.30;97882.38;4939360;29;20445;-79
2023/03/05 06:50:59;;;;;;;24.02;14.18;;;;;;;5.04;62.40;97888.75;4956332;28;20045;-77
2023/03/05 06:53:26;;;;;;;18.30;13.07;;;;;;;4.98;62.15;97881.28;4956312;28;20514;-78
2023/03/05 06:55:52;;;;;;;15.75;11.20;;;;;;;5.05;64.04;97890.41;4954382;29;20058;-83
2023/03/05 06:58:18;;;;;;;18.45;12.43;;;;;;;6.05;64.35;97890.16;4941776;29;20086;-78
2023/03/05 07:00:44;;;;;;;19.08;13.27;;;;;;;6.11;60.74;97883.50;4969542;28;20387;-81
2023/03/05 07:03:10;;;;;;;16.67;9.75;;;;;;;6.48;67.35;97876.72;4956287;29;20062;-84
2023/03/05 07:05:39;;;;;;;17.70;10.70;;;;;;;6.34;58.26;97863.78;4955175;29;20054;-77
2023/03/05 07:08:04;;;;;;;19.67;12.13;;;;;;;5.79;58.82;97868.44;4954499;29;20039;-83
2023/03/05 07:10:30;;;;;;;16.67;10.90;;;;;;;5.38;58.92;97864.81;4960907;28;20063;-79
2023/03/05 07:12:57;;;;;;;17.63;11.60;;;;;;;4.87;60.61;97866.25;4959038;28;20055;-79
2023/03/05 07:15:23;;;;;;;26.20;13.73;;;;;;;4.93;61.43;97869.38;4954920;29;20043;-80
2023/03/05 07:17:49;;;;;;;25.17;11.98;;;;;;;4.75;61.71;97863.75;4974512;28;20054;-79
2023/03/05 07:20:18;;;;;;;16.77;10.75;;;;;;;4.57;62.49;97866.06;4968634;28;20034;-79
2023/03/05 07:22:44;;;;;;;17.75;11.82;;;;;;;4.67;62.34;97860.88;4974007;28;20039;-80
2023/03/05 07:25:10;;;;;;;18.13;11.55;;;;;;;4.56;62.45;97859.94;4957406;28;20137;-78
2023/03/05 07:27:37;;;;;;;36.05;13.55;;;;;;;4.59;62.60;97859.69;4975325;28;20050;-79
2023/03/05 07:30:04;;;;;;;16.15;10.07;;;;;;;4.81;68.44;97868.53;4976306;28;20047;-88
2023/03/05 07:32:30;;;;;;;16.25;11.23;;;;;;;5.28;64.01;97858.56;4958502;28;20493;-79
2023/03/05 07:34:56;;;;;;;20.15;11.43;;;;;;;5.03;62.14;97863.19;4975079;28;20039;-85
2023/03/05 07:37:26;;;;;;;16.10;10.48;;;;;;;4.66;62.26;97861.81;4957353;28;20038;-79
2023/03/05 07:39:52;;;;;;;22.40;11.80;;;;;;;4.62;62.70;97867.34;4956534;28;20062;-79
2023/03/05 07:42:18;;;;;;;21.13;11.52;;;;;;;4.11;64.20;97851.97;4975178;28;20498;-80
2023/03/05 07:44:54;;;;;;;17.52;11.68;;;;;;;3.69;64.93;97853.47;4973819;28;20490;-81
2023/03/05 07:47:22;;;;;;;22.55;11.32;;;;;;;3.38;66.60;97847.00;4974988;28;20125;-78
2023/03/05 07:49:48;;;;;;;19.50;13.45;;;;;;;3.28;66.96;97853.94;4973363;28;20047;-80
2023/03/05 07:52:16;;;;;;;19.77;12.25;;;;;;;3.41;71.05;97862.63;4975299;28;20577;-90
2023/03/05 07:54:43;;;;;;;23.00;14.07;;;;;;;3.65;68.92;97849.38;4941983;28;20129;-83
2023/03/05 07:57:12;;;;;;;22.27;13.65;;;;;;;3.58;67.14;97849.00;4980840;28;20077;-79
2023/03/05 07:59:40;;;;;;;20.38;13.18;;;;;;;3.53;67.48;97830.00;4981632;28;20121;-79
2023/03/05 08:02:06;;;;;;;21.80;13.70;;;;;;;3.44;67.04;97835.97;4961891;28;20160;-78
2023/03/05 08:04:32;;;;;;;19.92;13.05;;;;;;;3.40;67.23;97834.53;4974945;28;20050;-79
2023/03/05 08:06:58;;;;;;;20.23;13.75;;;;;;;3.41;67.65;97831.75;4940358;28;20401;-79
2023/03/05 08:09:25;;;;;;;20.15;11.45;;;;;;;3.32;67.84;97831.63;4955718;28;20138;-79
2023/03/05 08:11:50;;;;;;;19.00;12.18;;;;;;;3.39;67.67;97827.56;4978537;28;20082;-79
2023/03/05 08:14:16;;;;;;;21.70;12.80;;;;;;;3.50;67.28;97818.81;4973907;28;20129;-79
2023/03/05 08:16:42;;;;;;;20.33;12.27;;;;;;;3.31;67.97;97809.66;4939876;28;20062;-80
2023/03/05 08:19:09;;;;;;;18.33;11.45;;;;;;;3.08;68.19;97806.06;4955919;28;20039;-79
2023/03/05 08:21:36;;;;;;;17.20;10.60;;;;;;;2.84;69.02;97794.69;4956010;28;20066;-79
2023/03/05 08:24:06;;;;;;;17.17;9.27;;;;;;;2.76;68.84;97802.34;4943394;28;20077;-80
2023/03/05 08:26:37;;;;;;;16.30;9.70;;;;;;;2.66;70.04;97802.97;4950531;28;20134;-78
2023/03/05 08:29:04;;;;;;;16.23;10.52;;;;;;;2.55;70.58;97795.00;4958944;28;20054;-81
2023/03/05 08:31:31;;;;;;;20.55;12.23;;;;;;;2.76;70.18;97775.94;4991342;28;20205;-80
2023/03/05 08:33:58;;;;;;;13.82;9.43;;;;;;;2.85;69.59;97765.53;4977730;28;20103;-82
2023/03/05 08:36:24;;;;;;;19.25;11.23;;;;;;;3.04;68.76;97774.75;4976805;28;20050;-81
2023/03/05 08:38:50;;;;;;;17.60;11.45;;;;;;;2.94;69.02;97769.31;4992740;28;20038;-79
2023/03/05 08:41:17;;;;;;;17.98;10.68;;;;;;;3.00;68.58;97776.75;4976020;28;20054;-80
2023/03/05 08:43:43;;;;;;;19.65;9.85;;;;;;;2.96;68.56;97767.38;4993266;28;20097;-80
2023/03/05 08:46:11;;;;;;;16.20;9.18;;;;;;;2.93;68.69;97767.63;4991544;28;20038;-79
2023/03/05 08:48:38;;;;;;;15.55;10.23;;;;;;;3.02;69.10;97755.56;4975903;28;20082;-79
2023/03/05 08:51:09;;;;;;;13.98;9.45;;;;;;;3.15;68.03;97766.84;4975924;28;20100;-76
2023/03/05 08:53:39;;;;;;;15.80;10.63;;;;;;;3.03;68.70;97752.78;4992727;28;20394;-78
2023/03/05 08:56:05;;;;;;;18.73;11.80;;;;;;;3.02;68.64;97743.19;4956148;28;20046;-80
2023/03/05 08:58:31;;;;;;;18.73;11.40;;;;;;;3.08;68.58;97750.63;4973691;28;20535;-79
2023/03/05 09:00:57;;;;;;;17.80;11.27;;;;;;;3.22;68.80;97752.25;4973721;28;20062;-79
2023/03/05 09:03:23;;;;;;;17.80;10.93;;;;;;;3.34;68.62;97751.31;4942423;28;20061;-80
2023/03/05 09:05:50;;;;;;;19.75;12.10;;;;;;;3.40;68.70;97740.28;4979978;28;20413;-78
2023/03/05 09:08:16;;;;;;;18.38;10.60;;;;;;;3.37;67.68;97739.69;4955824;28;20042;-76
2023/03/05 09:10:44;;;;;;;19.88;12.60;;;;;;;3.37;67.99;97723.81;4972253;28;20042;-78
2023/03/05 09:13:10;;;;;;;19.05;12.50;;;;;;;3.44;67.82;97737.41;4956527;28;20145;-79
2023/03/05 09:15:37;;;;;;;16.15;9.38;;;;;;;3.45;66.73;97737.28;4956539;28;20379;-78
2023/03/05 09:18:03;;;;;;;17.52;11.50;;;;;;;3.93;69.78;97729.16;4940206;28;20098;-80
2023/03/05 09:20:32;;;;;;;13.75;8.80;;;;;;;4.19;65.50;97720.97;4972610;28;20083;-78
2023/03/05 09:22:58;;;;;;;17.63;10.32;;;;;;;4.21;65.07;97697.88;4971791;28;20494;-77
2023/03/05 09:25:24;;;;;;;19.83;12.30;;;;;;;4.23;64.35;97722.41;4956218;28;20155;-77
2023/03/05 09:27:50;;;;;;;16.58;10.73;;;;;;;4.21;64.65;97714.56;4988398;28;20043;-80
2023/03/05 09:30:16;;;;;;;14.70;9.55;;;;;;;4.17;64.24;97699.06;4956588;28;20051;-80
2023/03/05 09:32:42;;;;;;;17.13;11.40;;;;;;;3.85;64.63;97697.19;4956511;28;20039;-78
2023/03/05 09:35:09;;;;;;;17.17;11.98;;;;;;;3.82;65.23;97700.09;4973235;28;20514;-78
2023/03/05 09:37:35;;;;;;;17.67;11.38;;;;;;;3.81;64.70;97690.47;4971606;28;20062;-80
2023/03/05 09:40:00;;;;;;;17.27;11.70;;;;;;;3.92;65.07;97690.47;4971466;28;20062;-78
2023/03/05 09:43:21;;;;;;;17.77;11.70;;;;;;;3.95;64.97;97692.00;4972113;28;20102;-78
2023/03/05 09:45:59;;;;;;;18.83;11.25;;;;;;;3.88;65.01;97675.81;4954608;28;20599;-80
2023/03/05 09:48:34;;;;;;;21.30;12.40;;;;;;;4.13;64.50;97670.22;4952969;28;20543;-80
2023/03/05 09:51:03;;;;;;;24.08;11.82;;;;;;;4.21;64.13;97655.56;4940262;28;20042;-79
2023/03/05 09:53:42;;;;;;;17.35;11.27;;;;;;;4.42;63.31;97666.19;4972256;28;20061;-78
2023/03/05 09:56:14;;;;;;;16.77;11.85;;;;;;;4.56;62.64;97656.16;4956682;28;20053;-79
2023/03/05 09:58:45;;;;;;;18.80;11.68;;;;;;;4.74;62.04;97637.06;4975521;28;20097;-80
2023/03/05 10:01:25;;;;;;;16.58;9.73;;;;;;;4.93;60.87;97647.81;4959663;28;20065;-81
2023/03/05 10:04:10;;;;;;;17.33;11.07;;;;;;;5.15;60.79;97638.88;4959182;28;20145;-78
2023/03/05 10:06:46;;;;;;;17.90;12.50;;;;;;;5.54;59.61;97636.44;4943506;28;20042;-79
2023/03/05 10:09:47;;;;;;;14.93;10.05;;;;;;;5.41;58.53;97625.22;4959013;28;20058;-77
2023/03/05 10:12:26;;;;;;;17.98;11.60;;;;;;;5.22;59.50;97623.31;4973959;28;20046;-80
2023/03/05 10:14:53;;;;;;;19.85;11.95;;;;;;;5.82;59.75;97622.44;4959262;28;20101;-81
2023/03/05 10:17:45;;;;;;;15.45;9.45;;;;;;;6.26;56.50;97630.09;4975037;28;20512;-78
2023/03/05 10:20:32;;;;;;;13.35;9.75;;;;;;;6.24;56.07;97638.22;4976027;28;20085;-78
2023/03/05 10:23:36;;;;;;;17.05;9.27;;;;;;;5.98;57.13;97624.63;4974578;28;20568;-78
2023/03/05 10:26:05;;;;;;;17.35;9.95;;;;;;;5.92;57.40;97598.63;4976045;28;20051;-78
2023/03/05 10:28:34;;;;;;;18.50;10.52;;;;;;;5.70;57.84;97598.81;4975065;28;20109;-80
2023/03/05 10:31:20;;;;;;;20.38;11.35;;;;;;;5.55;58.20;97611.59;4959263;28;20105;-79
2023/03/05 10:34:29;;;;;;;19.27;10.32;;;;;;;5.66;58.21;97597.41;4975104;28;20482;-77
2023/03/05 10:37:32;;;;;;;22.02;11.13;;;;;;;5.45;58.58;97577.09;4958347;28;20049;-78
2023/03/05 10:40:16;;;;;;;22.73;11.65;;;;;;;5.55;58.66;97585.94;4974190;28;20063;-77
2023/03/05 10:42:48;;;;;;;18.33;10.75;;;;;;;5.58;58.44;97584.84;4959114;28;20078;-79
2023/03/05 10:45:36;;;;;;;19.95;11.98;;;;;;;5.54;58.87;97565.72;4974808;28;20047;-77
2023/03/05 10:48:27;;;;;;;18.17;12.45;;;;;;;5.37;59.17;97555.75;4974301;28;20082;-79
2023/03/05 10:51:18;;;;;;;21.42;12.18;;;;;;;5.31;59.05;97551.00;4958373;28;20039;-78
2023/03/05 10:53:58;;;;;;;21.27;12.38;;;;;;;5.41;59.66;97546.56;4974195;28;20064;-79
2023/03/05 10:56:27;;;;;;;18.48;11.43;;;;;;;6.07;57.94;97544.22;4942718;28;20484;-78
2023/03/05 10:58:53;;;;;;;18.43;11.23;;;;;;;6.04;57.30;97541.00;4975753;28;20082;-79
2023/03/05 11:01:22;;;;;;;19.67;11.00;;;;;;;5.85;57.44;97544.44;4974483;28;20047;-79
2023/03/05 11:03:54;;;;;;;18.77;10.73;;;;;;;5.96;56.83;97543.50;4942168;28;20432;-78
2023/03/05 11:06:34;;;;;;;15.90;10.93;;;;;;;5.52;58.06;97561.50;4973843;28;20174;-78
2023/03/05 11:09:18;;;;;;;18.52;12.07;;;;;;;5.15;59.11;97566.53;4941565;28;20054;-78
2023/03/05 11:12:00;;;;;;;25.63;10.93;;;;;;;4.78;59.86;97574.97;4975277;28;20046;-78
2023/03/05 11:14:32;;;;;;;18.38;11.55;;;;;;;4.57;60.82;97578.44;4958138;28;20101;-78
2023/03/05 11:17:27;;;;;;;21.25;11.80;;;;;;;4.55;61.65;97583.06;4942524;28;20563;-79
2023/03/05 11:19:54;;;;;;;28.30;15.93;;;;;;;4.34;62.46;97588.31;4974034;28;20039;-77
2023/03/05 11:22:22;;;;;;;16.05;10.90;;;;;;;4.17;62.87;97574.78;4974652;28;20506;-77
2023/03/05 11:25:11;;;;;;;17.95;11.77;;;;;;;4.08;63.23;97574.59;4957878;28;20438;-77
2023/03/05 11:27:50;;;;;;;18.60;11.20;;;;;;;3.96;63.54;97562.38;4942345;28;20043;-78
2023/03/05 11:30:30;;;;;;;18.60;11.48;;;;;;;3.68;64.70;97549.69;4958116;28;20050;-76
2023/03/05 11:33:16;;;;;;;17.52;10.80;;;;;;;3.66;65.05;97565.69;4943011;28;20038;-78
2023/03/05 11:35:42;;;;;;;14.23;10.32;;;;;;;3.54;66.02;97541.09;4975896;28;20051;-76